Time;durP1;ratioP1;P1;durP2;ratioP2;P2;SDS_P1;SDS_P2;PMS_P1;PMS_P2;Temp;Humidity;BMP_temperature;BMP_pressure;BME280_temperature;BME280_humidity;BME280_pressure;Samples;Min_cycle;Max_cycle;Signal;HPM_P1;HPM_P2
2022/12/15 00:38:40;;;;;;;12.93;6.42;;;;;;;;;;1734183;81;21056;-72
2022/12/15 00:41:06;;;;;;;12.07;7.05;;;;;;;;;;1728606;83;21002;-73
2022/12/15 00:43:33;;;;;;;13.00;6.87;;;;;;;;;;1728743;81;22066;-74
2022/12/15 00:48:44;;;;;;;11.53;6.17;;;;;;;;;;1728369;83;21116;-74
2022/12/15 00:51:12;;;;;;;11.25;6.17;;;;;;;;;;1728561;83;21481;-74
2022/12/15 01:21:08;;;;;;;8.38;4.75;;;;;;;;;;1742174;82;21052;-74
2022/12/15 01:23:34;;;;;;;12.93;6.55;;;;;;;;;;1731273;82;21053;-74
2022/12/15 01:26:00;;;;;;;13.13;6.00;;;;;;;;;;1757435;81;21583;-75
2022/12/15 01:28:28;;;;;;;11.38;6.67;;;;;;;;;;1726177;83;21013;-75
2022/12/15 01:30:54;;;;;;;11.00;5.45;;;;;;;;;;1726293;83;21527;-74
2022/12/15 01:33:20;;;;;;;11.15;6.05;;;;;;;;;;1730149;82;21032;-74
2022/12/15 01:35:59;;;;;;;12.05;6.17;;;;;;;;;;1733864;82;21040;-75
2022/12/15 01:38:25;;;;;;;9.95;5.90;;;;;;;;;;1726237;83;21036;-74
2022/12/15 01:40:53;;;;;;;12.50;6.55;;;;;;;;;;1734382;82;21049;-75
2022/12/15 01:43:21;;;;;;;10.63;5.20;;;;;;;;;;1729823;82;20981;-74
2022/12/15 01:45:49;;;;;;;12.25;6.37;;;;;;;;;;1726450;83;21072;-75
2022/12/15 01:48:20;;;;;;;13.13;6.10;;;;;;;;;;1726525;83;21392;-75
2022/12/15 01:50:48;;;;;;;14.73;6.25;;;;;;;;;;1726514;83;21107;-74
2022/12/15 01:53:14;;;;;;;12.15;6.03;;;;;;;;;;1726891;82;21052;-75
2022/12/15 01:55:41;;;;;;;11.63;6.37;;;;;;;;;;1726778;83;21098;-74
2022/12/15 01:58:07;;;;;;;14.00;5.53;;;;;;;;;;1726260;83;22040;-75
2022/12/15 02:03:22;;;;;;;12.03;5.62;;;;;;;;;;1706215;79;80960;-69
2022/12/15 02:05:49;;;;;;;11.53;6.17;;;;;;;;;;1660229;85;21536;-68
2022/12/15 02:08:17;;;;;;;12.68;6.42;;;;;;;;;;1661508;86;20989;-68
2022/12/15 02:10:45;;;;;;;12.58;6.85;;;;;;;;;;1661442;86;21560;-68
2022/12/15 02:13:16;;;;;;;10.98;5.67;;;;;;;;;;1661511;86;21112;-68
2022/12/15 02:15:49;;;;;;;10.38;6.47;;;;;;;;;;1658639;85;21116;-68
2022/12/15 02:18:26;;;;;;;12.47;6.00;;;;;;;;;;1661763;86;21041;-68
2022/12/15 02:21:04;;;;;;;11.63;6.17;;;;;;;;;;1650317;86;21072;-68
2022/12/15 02:23:32;;;;;;;11.43;6.12;;;;;;;;;;1661397;86;21072;-68
2022/12/15 02:26:15;;;;;;;13.53;6.62;;;;;;;;;;1657875;85;21016;-68
2022/12/15 02:28:43;;;;;;;14.70;6.75;;;;;;;;;;1651455;86;21053;-68
2022/12/15 02:34:01;;;;;;;13.30;6.95;;;;;;;;;;1634571;88;21095;-68
2022/12/15 02:36:32;;;;;;;11.78;6.08;;;;;;;;;;1658400;85;21021;-68
2022/12/15 06:39:17;;;;;;;14.33;7.30;;;;;;;;;;1871621;75;22086;-72
2022/12/15 06:41:44;;;;;;;13.30;6.67;;;;;;;;;;1825531;77;20989;-72
2022/12/15 06:44:13;;;;;;;17.02;8.58;;;;;;;;;;1827951;77;20953;-72
2022/12/15 06:46:39;;;;;;;15.32;8.25;;;;;;;;;;1830121;77;21416;-73
2022/12/15 06:49:06;;;;;;;12.30;6.85;;;;;;;;;;1827714;78;21035;-74
2022/12/15 06:51:33;;;;;;;15.23;7.17;;;;;;;;;;1831148;77;21519;-73
2022/12/15 06:53:59;;;;;;;26.70;10.23;;;;;;;;;;1828513;77;20981;-73
2022/12/15 06:56:27;;;;;;;16.25;7.45;;;;;;;;;;1828983;77;21522;-74
2022/12/15 06:58:53;;;;;;;14.38;7.33;;;;;;;;;;1828455;77;20988;-72
2022/12/15 07:01:21;;;;;;;14.33;7.42;;;;;;;;;;1822482;77;21016;-72
2022/12/15 07:03:47;;;;;;;13.65;7.17;;;;;;;;;;1826480;77;21557;-73
2022/12/15 07:06:14;;;;;;;14.47;7.58;;;;;;;;;;1829325;77;21495;-73
2022/12/15 07:08:42;;;;;;;11.60;6.87;;;;;;;;;;1829446;78;20996;-73
2022/12/15 07:11:10;;;;;;;14.10;7.67;;;;;;;;;;1828597;77;21024;-73
2022/12/15 07:13:36;;;;;;;13.28;7.55;;;;;;;;;;1831034;77;21019;-73
2022/12/15 07:16:03;;;;;;;12.18;7.05;;;;;;;;;;1829573;78;21058;-73
2022/12/15 07:18:29;;;;;;;12.50;7.85;;;;;;;;;;1829984;78;21047;-72
2022/12/15 07:20:56;;;;;;;13.53;7.25;;;;;;;;;;1829700;78;21024;-72
2022/12/15 07:23:22;;;;;;;13.78;7.95;;;;;;;;;;1829427;78;21016;-73
2022/12/15 07:25:48;;;;;;;12.85;7.10;;;;;;;;;;1828074;77;21079;-73
2022/12/15 07:28:14;;;;;;;13.38;7.00;;;;;;;;;;1793011;80;21000;-74
2022/12/15 07:30:42;;;;;;;12.07;7.67;;;;;;;;;;1791104;80;21431;-73
2022/12/15 07:33:08;;;;;;;11.43;6.10;;;;;;;;;;1762152;80;21506;-73
2022/12/15 07:35:34;;;;;;;15.90;7.60;;;;;;;;;;1763026;80;21518;-73
2022/12/15 07:38:03;;;;;;;13.03;6.90;;;;;;;;;;1788983;78;21129;-73
2022/12/15 07:40:30;;;;;;;13.55;7.08;;;;;;;;;;1791727;80;21538;-73
2022/12/15 07:42:57;;;;;;;12.33;6.33;;;;;;;;;;1794287;80;20995;-72
2022/12/15 07:45:24;;;;;;;15.18;6.90;;;;;;;;;;1793976;80;21636;-73
2022/12/15 07:47:52;;;;;;;12.78;6.45;;;;;;;;;;1794089;80;21071;-73
2022/12/15 07:50:18;;;;;;;12.70;6.55;;;;;;;;;;1781232;80;21721;-73
2022/12/15 07:52:45;;;;;;;10.55;6.47;;;;;;;;;;1788739;80;21043;-73
2022/12/15 07:55:11;;;;;;;13.25;7.47;;;;;;;;;;1786828;80;21048;-73
2022/12/15 07:57:37;;;;;;;13.45;7.08;;;;;;;;;;1781088;79;21500;-73
2022/12/15 08:00:04;;;;;;;11.60;6.30;;;;;;;;;;1793411;80;21008;-73
2022/12/15 08:02:33;;;;;;;11.60;6.65;;;;;;;;;;1781335;80;21052;-73
2022/12/15 08:04:59;;;;;;;14.53;6.78;;;;;;;;;;1792555;80;21059;-73
2022/12/15 08:07:26;;;;;;;12.10;6.28;;;;;;;;;;1787642;80;21016;-73
2022/12/15 08:09:52;;;;;;;11.90;6.30;;;;;;;;;;1780020;80;21559;-74
2022/12/15 08:12:18;;;;;;;13.05;7.65;;;;;;;;;;1793609;80;21047;-74
2022/12/15 08:14:44;;;;;;;10.78;6.40;;;;;;;;;;1798143;79;20971;-74
2022/12/15 08:17:10;;;;;;;12.23;6.95;;;;;;;;;;1778923;80;21111;-73
2022/12/15 08:19:38;;;;;;;12.82;6.50;;;;;;;;;;1776312;80;21028;-73
2022/12/15 08:22:04;;;;;;;12.58;6.85;;;;;;;;;;1791104;80;21059;-75
2022/12/15 08:24:30;;;;;;;11.95;7.10;;;;;;;;;;1790107;78;21105;-75
2022/12/15 08:26:55;;;;;;;10.70;5.87;;;;;;;;;;1802458;78;20984;-74
2022/12/15 08:29:22;;;;;;;10.82;5.85;;;;;;;;;;1798208;78;21519;-74
2022/12/15 08:31:48;;;;;;;12.53;6.35;;;;;;;;;;1772667;80;21021;-73
2022/12/15 08:34:14;;;;;;;12.58;7.33;;;;;;;;;;1771649;79;21056;-72
2022/12/15 08:36:42;;;;;;;10.55;5.30;;;;;;;;;;1764286;80;21021;-73
2022/12/15 08:39:11;;;;;;;12.68;6.95;;;;;;;;;;1752167;81;21087;-72
2022/12/15 08:41:40;;;;;;;12.50;6.10;;;;;;;;;;1766002;81;21056;-71
2022/12/15 08:44:06;;;;;;;14.78;6.05;;;;;;;;;;1765621;80;21061;-72
2022/12/15 08:46:33;;;;;;;10.70;6.03;;;;;;;;;;1760539;81;21326;-72
2022/12/15 08:48:59;;;;;;;9.85;5.58;;;;;;;;;;1751736;81;21064;-72
2022/12/15 08:51:26;;;;;;;11.30;6.15;;;;;;;;;;1762860;81;21017;-72
2022/12/15 08:53:54;;;;;;;9.78;5.90;;;;;;;;;;1734875;81;21002;-71
2022/12/15 08:56:20;;;;;;;9.75;5.60;;;;;;;;;;1760370;81;20945;-72
2022/12/15 08:58:47;;;;;;;9.88;5.85;;;;;;;;;;1787242;80;21012;-74
2022/12/15 09:01:15;;;;;;;11.22;6.12;;;;;;;;;;1767432;81;21072;-72
2022/12/15 09:03:41;;;;;;;10.28;5.90;;;;;;;;;;1758628;81;21044;-72
2022/12/15 09:06:09;;;;;;;10.70;6.25;;;;;;;;;;1767789;81;21057;-75
2022/12/15 09:08:36;;;;;;;9.55;6.40;;;;;;;;;;1751989;81;21319;-74
2022/12/15 09:11:04;;;;;;;11.10;5.75;;;;;;;;;;1762913;80;21569;-73
2022/12/15 09:13:30;;;;;;;9.58;5.92;;;;;;;;;;1762252;80;21010;-73
2022/12/15 09:16:00;;;;;;;9.40;5.37;;;;;;;;;;1774059;80;20994;-73
2022/12/15 09:18:27;;;;;;;10.13;5.25;;;;;;;;;;1761797;80;21057;-73
2022/12/15 09:20:53;;;;;;;10.08;5.53;;;;;;;;;;1768355;79;21593;-73
2022/12/15 09:23:20;;;;;;;13.40;5.53;;;;;;;;;;1764893;79;21110;-74
2022/12/15 09:25:46;;;;;;;8.78;5.37;;;;;;;;;;1767741;79;21021;-71
2022/12/15 09:28:13;;;;;;;10.85;5.70;;;;;;;;;;1767571;81;22152;-72
2022/12/15 09:30:39;;;;;;;10.00;5.40;;;;;;;;;;1766792;81;21590;-74
2022/12/15 09:33:05;;;;;;;7.95;5.12;;;;;;;;;;1766747;80;21491;-70
2022/12/15 09:35:31;;;;;;;10.15;5.37;;;;;;;;;;1762257;81;21055;-71
2022/12/15 09:37:57;;;;;;;9.83;6.12;;;;;;;;;;1746750;81;21120;-74
2022/12/15 09:40:23;;;;;;;9.45;5.53;;;;;;;;;;1753138;80;21064;-73
2022/12/15 09:42:52;;;;;;;9.03;5.58;;;;;;;;;;1764546;79;21078;-73
2022/12/15 09:45:19;;;;;;;10.08;5.87;;;;;;;;;;1785711;79;21021;-73
2022/12/15 09:47:53;;;;;;;8.95;5.60;;;;;;;;;;1767299;81;21137;-72
2022/12/15 09:50:21;;;;;;;12.03;5.87;;;;;;;;;;1779195;79;21055;-72
2022/12/15 09:52:48;;;;;;;11.45;6.28;;;;;;;;;;1768878;79;21041;-72
2022/12/15 09:55:19;;;;;;;12.00;5.83;;;;;;;;;;1769392;79;21012;-72
2022/12/15 09:57:50;;;;;;;9.63;5.85;;;;;;;;;;1766501;79;21096;-73
2022/12/15 10:00:21;;;;;;;8.45;5.53;;;;;;;;;;1767074;79;21582;-72
2022/12/15 10:02:55;;;;;;;8.65;4.85;;;;;;;;;;1766258;79;21025;-72
2022/12/15 10:05:23;;;;;;;10.00;5.95;;;;;;;;;;1750723;81;21459;-73
2022/12/15 10:07:49;;;;;;;9.85;5.92;;;;;;;;;;1773810;81;21021;-74
2022/12/15 10:10:17;;;;;;;11.78;5.70;;;;;;;;;;1770476;81;21040;-70
2022/12/15 10:12:43;;;;;;;7.60;5.10;;;;;;;;;;1771165;79;21028;-73
2022/12/15 10:15:20;;;;;;;10.03;5.35;;;;;;;;;;1758752;81;21033;-73
2022/12/15 10:18:00;;;;;;;12.10;6.90;;;;;;;;;;1772628;79;21009;-72
2022/12/15 10:20:26;;;;;;;8.10;4.92;;;;;;;;;;1769807;80;21068;-73
2022/12/15 10:22:52;;;;;;;9.48;5.67;;;;;;;;;;1769964;81;21043;-73
2022/12/15 10:25:26;;;;;;;9.13;5.70;;;;;;;;;;1784420;79;21555;-73
2022/12/15 10:28:06;;;;;;;9.75;5.92;;;;;;;;;;1775067;79;21872;-73
2022/12/15 10:42:47;;;;;;;10.93;6.50;;;;;;;;;;1830692;77;22139;-71
2022/12/15 10:45:15;;;;;;;8.35;4.70;;;;;;;;;;1765224;80;21095;-70
2022/12/15 10:47:41;;;;;;;10.08;5.20;;;;;;;;;;1764045;80;21499;-71
2022/12/15 10:50:17;;;;;;;8.95;5.25;;;;;;;;;;1769472;80;21000;-71
2022/12/15 10:52:44;;;;;;;8.53;5.33;;;;;;;;;;1791520;80;21075;-72
2022/12/15 10:55:29;;;;;;;7.37;4.72;;;;;;;;;;1784536;79;20985;-71
2022/12/15 10:57:59;;;;;;;6.85;4.55;;;;;;;;;;1762090;80;21009;-72
2022/12/15 11:00:27;;;;;;;7.35;5.00;;;;;;;;;;1792067;80;21056;-72
2022/12/15 11:02:53;;;;;;;6.70;4.35;;;;;;;;;;1771163;80;21017;-75
2022/12/15 11:05:19;;;;;;;9.18;5.15;;;;;;;;;;1781215;78;20992;-73
2022/12/15 11:07:46;;;;;;;7.85;4.40;;;;;;;;;;1766095;80;21028;-73
2022/12/15 11:10:17;;;;;;;7.00;4.22;;;;;;;;;;1779359;80;21004;-73
2022/12/15 11:12:53;;;;;;;8.30;4.87;;;;;;;;;;1779426;78;21024;-73
2022/12/15 11:15:21;;;;;;;11.93;5.30;;;;;;;;;;1778811;80;21032;-77
2022/12/15 11:17:56;;;;;;;12.03;5.40;;;;;;;;;;1785082;80;21001;-73
2022/12/15 11:20:24;;;;;;;12.78;5.50;;;;;;;;;;1765671;78;21009;-77
2022/12/15 11:22:55;;;;;;;14.00;6.20;;;;;;;;;;1782906;79;21046;-77
2022/12/15 11:25:31;;;;;;;13.35;6.40;;;;;;;;;;1777824;79;21026;-76
2022/12/15 11:27:58;;;;;;;14.00;6.03;;;;;;;;;;1781123;80;20997;-75
2022/12/15 11:30:25;;;;;;;11.57;6.05;;;;;;;;;;1779715;80;21575;-73
2022/12/15 11:32:52;;;;;;;10.10;5.78;;;;;;;;;;1778995;80;21073;-71
2022/12/15 11:35:21;;;;;;;9.80;5.10;;;;;;;;;;1791785;78;21052;-71
2022/12/15 11:37:51;;;;;;;7.33;4.53;;;;;;;;;;1767263;80;21046;-69
2022/12/15 11:40:29;;;;;;;8.95;5.25;;;;;;;;;;1777990;80;21431;-70
2022/12/15 11:43:17;;;;;;;5.60;3.75;;;;;;;;;;1777727;80;21032;-72
2022/12/15 11:45:46;;;;;;;7.90;4.85;;;;;;;;;;1778409;80;21052;-76
2022/12/15 11:48:16;;;;;;;8.13;4.47;;;;;;;;;;1774738;78;21035;-75
2022/12/15 11:51:02;;;;;;;7.22;4.85;;;;;;;;;;1776191;79;21032;-76
2022/12/15 11:53:50;;;;;;;11.57;5.37;;;;;;;;;;1774928;80;21048;-74
2022/12/15 11:56:18;;;;;;;10.63;4.97;;;;;;;;;;1776869;80;21028;-75
2022/12/15 11:58:55;;;;;;;9.68;4.92;;;;;;;;;;1780521;80;21072;-78
2022/12/15 12:01:31;;;;;;;9.93;5.25;;;;;;;;;;1776419;80;21095;-75
2022/12/15 12:04:02;;;;;;;10.25;4.80;;;;;;;;;;1766168;80;21013;-74
2022/12/15 12:06:33;;;;;;;12.75;5.72;;;;;;;;;;1775484;80;21030;-76
2022/12/15 12:09:06;;;;;;;12.78;7.53;;;;;;;;;;1774307;80;21223;-74
2022/12/15 12:11:48;;;;;;;11.95;6.12;;;;;;;;;;1776647;80;21503;-72
2022/12/15 12:14:23;;;;;;;9.63;5.53;;;;;;;;;;1782650;78;21045;-73
2022/12/15 12:17:09;;;;;;;6.95;4.30;;;;;;;;;;1775037;80;21003;-72
2022/12/15 12:19:42;;;;;;;7.90;4.75;;;;;;;;;;1777210;80;21520;-71
2022/12/15 12:22:15;;;;;;;9.90;4.95;;;;;;;;;;1772936;80;21024;-71
2022/12/15 12:24:42;;;;;;;7.72;5.22;;;;;;;;;;1772754;80;21001;-72
2022/12/15 12:27:10;;;;;;;10.40;5.67;;;;;;;;;;1775455;80;20989;-71
2022/12/15 12:29:38;;;;;;;10.13;5.12;;;;;;;;;;1775023;80;21523;-72
2022/12/15 12:32:06;;;;;;;10.43;5.83;;;;;;;;;;1777581;80;21113;-72
2022/12/15 12:34:51;;;;;;;12.60;6.78;;;;;;;;;;1779414;80;21011;-73
2022/12/15 12:37:28;;;;;;;9.40;5.60;;;;;;;;;;1781920;80;21005;-73
2022/12/15 12:39:55;;;;;;;8.55;5.45;;;;;;;;;;1718578;83;21294;-70
2022/12/15 12:42:26;;;;;;;11.73;6.62;;;;;;;;;;1713247;83;21023;-70
2022/12/15 12:44:54;;;;;;;11.65;6.53;;;;;;;;;;1761659;81;21547;-73
2022/12/15 12:47:28;;;;;;;11.63;5.87;;;;;;;;;;1762365;81;21025;-74
2022/12/15 12:49:59;;;;;;;13.22;7.30;;;;;;;;;;1763000;81;21553;-70
2022/12/15 12:52:27;;;;;;;15.20;6.58;;;;;;;;;;1763731;81;21009;-71
2022/12/15 12:54:54;;;;;;;10.80;6.00;;;;;;;;;;1766197;81;21018;-72
2022/12/15 12:57:35;;;;;;;10.90;6.12;;;;;;;;;;1758818;81;21091;-73
2022/12/15 13:00:04;;;;;;;12.23;6.85;;;;;;;;;;1754580;81;20982;-73
2022/12/15 13:02:39;;;;;;;14.30;6.72;;;;;;;;;;1764348;81;21037;-72
2022/12/15 13:05:25;;;;;;;12.53;6.10;;;;;;;;;;1762029;81;21053;-73
2022/12/15 13:07:53;;;;;;;13.38;7.12;;;;;;;;;;1765034;81;21041;-74
2022/12/15 13:10:21;;;;;;;10.03;6.25;;;;;;;;;;1761101;81;20998;-71
2022/12/15 13:12:48;;;;;;;12.95;7.20;;;;;;;;;;1758627;81;21580;-68
2022/12/15 13:15:16;;;;;;;12.30;6.87;;;;;;;;;;1762552;81;21048;-71
2022/12/15 13:17:43;;;;;;;11.85;6.50;;;;;;;;;;1757432;80;21500;-70
2022/12/15 13:20:14;;;;;;;13.72;7.75;;;;;;;;;;1758590;81;21062;-70
2022/12/15 13:22:40;;;;;;;11.20;6.35;;;;;;;;;;1759791;81;21062;-70
2022/12/15 13:25:27;;;;;;;13.22;6.65;;;;;;;;;;1760622;81;20995;-70
2022/12/15 13:27:54;;;;;;;13.25;6.92;;;;;;;;;;1760781;81;20977;-70
2022/12/15 13:30:22;;;;;;;10.93;6.85;;;;;;;;;;1749662;81;22259;-70
2022/12/15 13:32:52;;;;;;;10.18;5.53;;;;;;;;;;1763381;81;21024;-70
2022/12/15 13:35:20;;;;;;;14.05;7.60;;;;;;;;;;1759319;80;21025;-70
2022/12/15 13:37:49;;;;;;;10.60;6.03;;;;;;;;;;1761656;81;21069;-70
2022/12/15 13:40:23;;;;;;;12.47;6.70;;;;;;;;;;1760933;81;21011;-69
2022/12/15 13:42:57;;;;;;;12.07;6.47;;;;;;;;;;1760942;80;21055;-70
2022/12/15 13:45:26;;;;;;;11.83;6.08;;;;;;;;;;1762445;81;21016;-70
2022/12/15 13:47:53;;;;;;;11.05;7.37;;;;;;;;;;1742556;80;21045;-70
2022/12/15 13:50:27;;;;;;;10.82;6.60;;;;;;;;;;1763242;81;20981;-69
2022/12/15 13:52:54;;;;;;;13.85;6.65;;;;;;;;;;1759995;80;21558;-69
2022/12/15 13:55:21;;;;;;;12.63;6.30;;;;;;;;;;1760209;79;20993;-69
2022/12/15 13:57:49;;;;;;;14.47;7.05;;;;;;;;;;1765082;79;21076;-70
2022/12/15 14:00:18;;;;;;;11.57;5.85;;;;;;;;;;1761883;81;21069;-69
2022/12/15 14:02:44;;;;;;;13.00;6.67;;;;;;;;;;1765580;81;21034;-69
2022/12/15 14:05:24;;;;;;;13.10;6.37;;;;;;;;;;1753231;81;21006;-69
2022/12/15 14:07:55;;;;;;;13.10;6.72;;;;;;;;;;1763086;81;21002;-68
2022/12/15 14:10:22;;;;;;;12.23;7.03;;;;;;;;;;1759662;81;21050;-68
2022/12/15 14:12:49;;;;;;;11.48;6.58;;;;;;;;;;1761304;80;21153;-68
2022/12/15 14:15:15;;;;;;;17.90;7.45;;;;;;;;;;1763762;81;21046;-69
2022/12/15 14:17:43;;;;;;;14.80;7.10;;;;;;;;;;1763586;79;21016;-68
2022/12/15 14:20:10;;;;;;;10.58;6.47;;;;;;;;;;1761884;80;20994;-68
2022/12/15 14:22:39;;;;;;;10.18;6.33;;;;;;;;;;1759940;81;21058;-69
2022/12/15 14:25:13;;;;;;;12.70;7.22;;;;;;;;;;1756638;79;21572;-67
2022/12/15 14:27:39;;;;;;;12.50;7.12;;;;;;;;;;1762711;81;21017;-68
2022/12/15 14:30:21;;;;;;;12.37;6.72;;;;;;;;;;1707942;82;21104;-66
2022/12/15 14:33:02;;;;;;;12.05;6.60;;;;;;;;;;1706965;82;21048;-67
2022/12/15 14:35:30;;;;;;;11.20;6.70;;;;;;;;;;1703787;83;21035;-66
2022/12/15 14:37:57;;;;;;;10.85;6.60;;;;;;;;;;1761012;80;21025;-66
2022/12/15 14:40:25;;;;;;;10.25;6.47;;;;;;;;;;1769232;80;21552;-67
2022/12/15 14:42:52;;;;;;;15.38;8.23;;;;;;;;;;1762163;79;21340;-67
2022/12/15 14:45:21;;;;;;;10.72;6.58;;;;;;;;;;1760058;80;20997;-69
2022/12/15 14:47:49;;;;;;;13.35;7.20;;;;;;;;;;1765035;80;21117;-67
2022/12/15 14:50:16;;;;;;;15.38;8.75;;;;;;;;;;1760179;81;21585;-66
2022/12/15 14:52:42;;;;;;;18.23;8.20;;;;;;;;;;1761864;81;21524;-64
2022/12/15 15:07:45;;;;;;;14.38;7.50;;;;;;;;;;1803431;78;28687;-69
2022/12/15 15:10:25;;;;;;;15.35;7.78;;;;;;;;;;1764294;81;21060;-70
2022/12/15 15:12:52;;;;;;;13.38;7.15;;;;;;;;;;1764922;80;21654;-71
2022/12/15 15:15:19;;;;;;;12.98;7.50;;;;;;;;;;1759315;81;21009;-68
2022/12/15 15:17:50;;;;;;;13.78;7.60;;;;;;;;;;1760075;80;21103;-70
2022/12/15 15:20:17;;;;;;;17.73;8.80;;;;;;;;;;1761193;81;21021;-72
2022/12/15 15:22:44;;;;;;;13.20;7.45;;;;;;;;;;1750552;81;20996;-72
2022/12/15 15:25:27;;;;;;;16.80;8.33;;;;;;;;;;1766080;81;21554;-72
2022/12/15 15:28:11;;;;;;;17.42;8.53;;;;;;;;;;1763819;81;21071;-71
2022/12/15 15:30:42;;;;;;;13.13;7.47;;;;;;;;;;1762829;80;21087;-73
2022/12/15 15:33:09;;;;;;;17.50;8.75;;;;;;;;;;1764214;80;21055;-72
2022/12/15 15:35:35;;;;;;;13.48;8.80;;;;;;;;;;1763976;81;21032;-74
2022/12/15 15:38:06;;;;;;;19.27;10.30;;;;;;;;;;1764715;80;21004;-67
2022/12/15 15:40:33;;;;;;;19.57;9.48;;;;;;;;;;1763819;81;21047;-69
2022/12/15 15:42:59;;;;;;;16.10;8.90;;;;;;;;;;1773235;80;21031;-70
2022/12/15 15:45:25;;;;;;;18.62;9.13;;;;;;;;;;1760684;81;21424;-69
2022/12/15 15:47:51;;;;;;;17.62;9.00;;;;;;;;;;1763100;81;20988;-70
2022/12/15 15:50:19;;;;;;;12.98;7.42;;;;;;;;;;1760748;80;21584;-70
2022/12/15 15:52:45;;;;;;;15.43;7.55;;;;;;;;;;1765246;80;21024;-69
2022/12/15 15:55:12;;;;;;;15.32;7.92;;;;;;;;;;1761265;80;21123;-69
2022/12/15 15:57:38;;;;;;;13.95;7.33;;;;;;;;;;1741769;80;21083;-70
2022/12/15 16:00:16;;;;;;;19.37;9.33;;;;;;;;;;1726557;81;21024;-69
2022/12/15 16:02:42;;;;;;;19.40;9.08;;;;;;;;;;1724777;83;20995;-70
2022/12/15 16:05:09;;;;;;;15.68;9.08;;;;;;;;;;1728383;81;21010;-68
2022/12/15 16:07:36;;;;;;;17.62;9.40;;;;;;;;;;1727138;82;21075;-69
2022/12/15 16:10:03;;;;;;;18.57;8.55;;;;;;;;;;1728191;81;21060;-69
2022/12/15 16:12:32;;;;;;;14.58;8.03;;;;;;;;;;1728168;83;21044;-70
2022/12/15 16:14:58;;;;;;;12.95;7.60;;;;;;;;;;1722304;83;20954;-70
2022/12/15 16:17:24;;;;;;;15.68;8.80;;;;;;;;;;1726079;83;21617;-69
2022/12/15 16:19:50;;;;;;;15.90;8.33;;;;;;;;;;1727720;83;21047;-71
2022/12/15 16:22:17;;;;;;;15.83;9.40;;;;;;;;;;1727682;83;21029;-70
2022/12/15 16:24:43;;;;;;;14.63;8.10;;;;;;;;;;1728807;81;21020;-70
2022/12/15 16:27:10;;;;;;;17.35;7.87;;;;;;;;;;1728371;83;21091;-70
2022/12/15 16:29:36;;;;;;;16.93;9.68;;;;;;;;;;1726677;83;21480;-70
2022/12/15 16:32:04;;;;;;;15.72;8.70;;;;;;;;;;1720732;83;21428;-71
2022/12/15 16:34:30;;;;;;;15.98;8.63;;;;;;;;;;1727663;81;21043;-71
2022/12/15 16:36:57;;;;;;;15.30;8.33;;;;;;;;;;1713894;83;21024;-72
2022/12/15 16:39:24;;;;;;;16.95;8.50;;;;;;;;;;1710905;83;21574;-72
2022/12/15 16:41:52;;;;;;;20.32;9.33;;;;;;;;;;1737293;81;21038;-72
2022/12/15 16:44:18;;;;;;;20.82;9.30;;;;;;;;;;1739309;81;21647;-72
2022/12/15 16:46:44;;;;;;;16.80;9.18;;;;;;;;;;1736543;81;21058;-72
2022/12/15 16:49:12;;;;;;;17.50;9.53;;;;;;;;;;1737709;81;20996;-72
2022/12/15 16:51:40;;;;;;;20.55;9.28;;;;;;;;;;1739481;81;21151;-72
2022/12/15 16:54:06;;;;;;;16.02;8.45;;;;;;;;;;1736574;81;21568;-72
2022/12/15 16:56:33;;;;;;;16.12;8.50;;;;;;;;;;1739411;81;21077;-72
2022/12/15 16:58:59;;;;;;;15.43;7.78;;;;;;;;;;1735088;81;21048;-73
2022/12/15 17:01:25;;;;;;;20.27;10.38;;;;;;;;;;1739035;81;21168;-70
2022/12/15 17:03:51;;;;;;;16.60;9.58;;;;;;;;;;1729401;81;21138;-72
2022/12/15 17:06:18;;;;;;;18.25;8.70;;;;;;;;;;1723618;82;21101;-77
2022/12/15 17:08:44;;;;;;;19.67;9.55;;;;;;;;;;1719153;83;21028;-76
2022/12/15 17:11:12;;;;;;;19.98;10.13;;;;;;;;;;1720884;83;21078;-70
2022/12/15 17:13:39;;;;;;;18.70;10.13;;;;;;;;;;1721626;83;21079;-70
2022/12/15 17:16:09;;;;;;;16.93;9.70;;;;;;;;;;1724989;83;21048;-70
2022/12/15 17:18:35;;;;;;;14.65;9.18;;;;;;;;;;1723474;83;21086;-70
2022/12/15 17:21:03;;;;;;;17.12;9.30;;;;;;;;;;1720098;83;21039;-70
2022/12/15 17:23:29;;;;;;;16.27;9.70;;;;;;;;;;1721819;83;21075;-69
2022/12/15 17:25:55;;;;;;;19.75;10.05;;;;;;;;;;1724655;83;21078;-69
2022/12/15 17:28:26;;;;;;;19.48;10.03;;;;;;;;;;1723100;81;20985;-69
2022/12/15 17:30:52;;;;;;;20.75;11.05;;;;;;;;;;1727979;83;20992;-70
2022/12/15 17:33:20;;;;;;;19.98;10.68;;;;;;;;;;1720999;83;21044;-69
2022/12/15 17:35:49;;;;;;;18.95;9.88;;;;;;;;;;1721923;82;21044;-68
2022/12/15 17:38:17;;;;;;;22.07;11.22;;;;;;;;;;1726556;81;21350;-69
2022/12/15 17:40:43;;;;;;;19.17;10.80;;;;;;;;;;1728004;83;21926;-70
2022/12/15 17:43:13;;;;;;;18.55;9.45;;;;;;;;;;1722904;83;21081;-70
2022/12/15 17:45:40;;;;;;;23.62;10.23;;;;;;;;;;1723777;83;21032;-70
2022/12/15 17:48:06;;;;;;;27.82;10.95;;;;;;;;;;1719016;83;21079;-69
2022/12/15 17:50:32;;;;;;;21.60;11.22;;;;;;;;;;1726238;83;21025;-70
2022/12/15 17:52:59;;;;;;;21.48;11.03;;;;;;;;;;1721982;83;21060;-69
2022/12/15 17:55:25;;;;;;;24.52;11.53;;;;;;;;;;1725777;83;21039;-69
2022/12/15 17:57:54;;;;;;;19.80;10.43;;;;;;;;;;1728773;81;21639;-70
2022/12/15 18:00:24;;;;;;;20.25;10.30;;;;;;;;;;1721996;83;21043;-71
2022/12/15 18:02:51;;;;;;;20.35;9.90;;;;;;;;;;1719880;83;22108;-69
2022/12/15 18:05:18;;;;;;;18.30;10.30;;;;;;;;;;1721356;83;21013;-75
2022/12/15 18:07:46;;;;;;;29.25;14.95;;;;;;;;;;1722570;83;21020;-73
2022/12/15 18:10:17;;;;;;;21.25;11.93;;;;;;;;;;1725676;83;21024;-72
2022/12/15 18:12:44;;;;;;;23.67;12.15;;;;;;;;;;1727563;83;21019;-73
2022/12/15 18:15:13;;;;;;;20.27;10.90;;;;;;;;;;1724189;81;21083;-73
2022/12/15 18:17:39;;;;;;;21.52;10.13;;;;;;;;;;1716279;81;21056;-74
2022/12/15 18:20:06;;;;;;;22.32;10.63;;;;;;;;;;1724136;83;21106;-74
2022/12/15 18:22:32;;;;;;;20.00;11.30;;;;;;;;;;1726223;83;20995;-74
2022/12/15 18:24:59;;;;;;;22.82;11.80;;;;;;;;;;1725428;82;21598;-74
2022/12/15 18:27:26;;;;;;;23.02;11.38;;;;;;;;;;1721818;83;21008;-75
2022/12/15 18:29:52;;;;;;;25.92;12.40;;;;;;;;;;1722426;83;21570;-74
2022/12/15 18:32:20;;;;;;;26.82;12.25;;;;;;;;;;1716973;83;21051;-72
2022/12/15 18:34:46;;;;;;;26.45;12.20;;;;;;;;;;1726679;81;21535;-72
2022/12/15 18:37:16;;;;;;;22.77;11.70;;;;;;;;;;1727746;83;21441;-72
2022/12/15 18:51:38;;;;;;;22.58;12.05;;;;;;;;;;1824288;77;22203;-72
2022/12/15 18:54:05;;;;;;;26.87;13.62;;;;;;;;;;1795195;78;21491;-70
2022/12/15 18:56:31;;;;;;;25.82;13.55;;;;;;;;;;1795797;78;21538;-72
2022/12/15 18:58:57;;;;;;;25.97;12.75;;;;;;;;;;1795502;78;20997;-74
2022/12/15 19:01:27;;;;;;;25.23;13.60;;;;;;;;;;1795739;78;21013;-72
2022/12/15 19:03:52;;;;;;;25.72;13.03;;;;;;;;;;1793803;78;21079;-74
2022/12/15 19:06:33;;;;;;;25.85;13.25;;;;;;;;;;1797542;78;21096;-72
2022/12/15 19:08:50;;;;;;;23.27;12.45;;;;;;;;;;1795616;78;22108;-74
2022/12/15 19:11:20;;;;;;;25.08;12.23;;;;;;;;;;1794042;78;21016;-72
2022/12/15 19:13:47;;;;;;;24.55;13.45;;;;;;;;;;1793381;78;21113;-72
2022/12/15 19:16:17;;;;;;;23.75;12.28;;;;;;;;;;1794923;78;21064;-73
2022/12/15 19:24:17;;;;;;;28.32;13.60;;;;;;;;;;1811400;78;21013;-72
2022/12/15 19:26:43;;;;;;;24.30;12.07;;;;;;;;;;1796993;78;21022;-71
2022/12/15 19:29:14;;;;;;;23.60;11.65;;;;;;;;;;1793978;78;22042;-73
2022/12/15 19:31:40;;;;;;;20.05;11.03;;;;;;;;;;1792344;78;21523;-71
2022/12/15 19:34:07;;;;;;;21.93;11.18;;;;;;;;;;1795311;78;20994;-72
2022/12/15 19:36:34;;;;;;;21.15;10.70;;;;;;;;;;1804241;78;21044;-71
2022/12/15 19:39:01;;;;;;;19.98;11.20;;;;;;;;;;1797099;78;21051;-72
2022/12/15 19:41:27;;;;;;;24.98;11.38;;;;;;;;;;1779022;78;21625;-70
2022/12/15 19:43:53;;;;;;;25.20;11.65;;;;;;;;;;1789121;79;21000;-71
2022/12/15 19:46:19;;;;;;;23.85;11.78;;;;;;;;;;1770664;80;21021;-71
2022/12/15 19:48:46;;;;;;;21.07;10.58;;;;;;;;;;1762118;80;20977;-70
2022/12/15 19:51:13;;;;;;;23.47;12.70;;;;;;;;;;1762511;81;21045;-70
2022/12/15 19:53:40;;;;;;;28.73;13.08;;;;;;;;;;1756659;81;21084;-72
2022/12/15 19:56:08;;;;;;;21.35;11.15;;;;;;;;;;1776387;80;20957;-71
2022/12/15 19:58:35;;;;;;;26.52;11.85;;;;;;;;;;1734033;82;21008;-73
2022/12/15 20:01:03;;;;;;;19.98;10.80;;;;;;;;;;1756106;81;21567;-74
2022/12/15 20:03:29;;;;;;;26.23;12.23;;;;;;;;;;1751498;81;21064;-72
2022/12/15 20:05:56;;;;;;;23.35;11.83;;;;;;;;;;1763737;81;21013;-72
2022/12/15 20:08:24;;;;;;;25.12;13.15;;;;;;;;;;1749873;81;20987;-72
2022/12/15 20:10:52;;;;;;;21.93;11.68;;;;;;;;;;1760804;81;21021;-73
2022/12/15 20:13:18;;;;;;;22.25;11.93;;;;;;;;;;1764870;80;21005;-75
2022/12/15 20:15:45;;;;;;;23.65;12.20;;;;;;;;;;1763616;80;21021;-71
2022/12/15 20:18:11;;;;;;;23.32;11.60;;;;;;;;;;1759318;80;21033;-72
2022/12/15 20:20:38;;;;;;;25.55;12.37;;;;;;;;;;1769947;81;21037;-73
2022/12/15 20:23:05;;;;;;;25.10;12.93;;;;;;;;;;1762499;80;21584;-71
2022/12/15 20:25:33;;;;;;;23.62;12.70;;;;;;;;;;1764402;80;21040;-74
2022/12/15 20:27:59;;;;;;;29.37;12.65;;;;;;;;;;1777239;80;21007;-73
2022/12/15 20:30:32;;;;;;;29.98;14.25;;;;;;;;;;1778109;81;21489;-78
2022/12/15 20:32:59;;;;;;;25.85;12.28;;;;;;;;;;1756974;80;21000;-80